Terminal Aerodrome Forecast
Issued by NWS

Home | Current Version | Previous Version | Text Only | Print | Product List | Glossary On
Versions: 1 2 3 4 5 6 7 8 9 10 11
000
FTAK31 PAJN 250500
TAFAWG
TAF
PAWG 250527Z 2506/2606 13005KT P6SM VCSH OVC035
     FM251000 11008KT P6SM -RA BKN025 OVC040
     FM252100 10007KT P6SM VCSH SCT025 BKN040
      AMD LTD TO CLD VIS AND WIND 2506/2515=

USA.gov is the U.S. government's official web portal to all federal, state and local government web resources and services.